Apple Valley, North Dakota
Current Conditions -  °F | °C
As of 2:52 PM on Friday 31 Oct 2014 (Local Time) from KBIS Reporting Station
Clear Clear  
Wind Chill: 28°   Ceiling: Unl
Heat Index: 39°   Visibility: 10mi
Dew Point: 15°   Wind: 23mph
Humidity: 38%   Direction: 160°SSE
Pressure: 30.31"   Gusts: 30mph
Location:  46.8954°N, 100.519°W
Report Text: KBIS 311952Z 16020G26KT 10SM CLR 04/M09 A3031 RMK AO2 PK WND 16029/1935 SLP288 T00391094
Loading
Personal Weather Stations






























Interactive Weather Map New forecast layout! Learn more

10-Day Weather Forecast

Advertisements
Track Severe Weather on mobile